sensor_id;sensor_type;location;lat;lon;timestamp;pressure;altitude;pressure_sealevel;temperature
19061;BMP280;9663;48.996;8.334;2023-08-31T00:00:10;99709.56;;;21.12
19061;BMP280;9663;48.996;8.334;2023-08-31T00:02:38;99717.38;;;21.10
19061;BMP280;9663;48.996;8.334;2023-08-31T00:05:05;99719.22;;;21.08
19061;BMP280;9663;48.996;8.334;2023-08-31T00:07:31;99718.34;;;21.08
19061;BMP280;9663;48.996;8.334;2023-08-31T00:09:57;99721.72;;;21.10
19061;BMP280;9663;48.996;8.334;2023-08-31T00:12:24;99715.53;;;21.12
19061;BMP280;9663;48.996;8.334;2023-08-31T00:14:50;99723.13;;;21.15
19061;BMP280;9663;48.996;8.334;2023-08-31T00:17:16;99720.38;;;21.18
19061;BMP280;9663;48.996;8.334;2023-08-31T00:19:43;99725.38;;;21.21
19061;BMP280;9663;48.996;8.334;2023-08-31T00:22:09;99718.38;;;21.23
19061;BMP280;9663;48.996;8.334;2023-08-31T00:24:35;99720.00;;;21.24
19061;BMP280;9663;48.996;8.334;2023-08-31T00:27:03;99720.69;;;21.28
19061;BMP280;9663;48.996;8.334;2023-08-31T00:29:29;99712.13;;;21.27
19061;BMP280;9663;48.996;8.334;2023-08-31T00:31:56;99710.28;;;21.29
19061;BMP280;9663;48.996;8.334;2023-08-31T00:34:22;99710.63;;;21.23
19061;BMP280;9663;48.996;8.334;2023-08-31T00:36:48;99708.97;;;21.22
19061;BMP280;9663;48.996;8.334;2023-08-31T00:39:14;99713.22;;;21.23
19061;BMP280;9663;48.996;8.334;2023-08-31T00:41:40;99715.06;;;21.21
19061;BMP280;9663;48.996;8.334;2023-08-31T00:44:06;99722.94;;;21.18
19061;BMP280;9663;48.996;8.334;2023-08-31T00:46:32;99721.44;;;21.14
19061;BMP280;9663;48.996;8.334;2023-08-31T00:48:59;99719.06;;;21.11
19061;BMP280;9663;48.996;8.334;2023-08-31T00:51:25;99717.47;;;21.09
19061;BMP280;9663;48.996;8.334;2023-08-31T00:53:52;99719.38;;;21.05
19061;BMP280;9663;48.996;8.334;2023-08-31T00:56:21;99729.84;;;21.02
19061;BMP280;9663;48.996;8.334;2023-08-31T00:58:47;99726.59;;;20.99
19061;BMP280;9663;48.996;8.334;2023-08-31T01:02:09;99727.50;;;20.83
19061;BMP280;9663;48.996;8.334;2023-08-31T01:05:18;99732.25;;;20.75
19061;BMP280;9663;48.996;8.334;2023-08-31T01:07:57;99735.31;;;20.81
19061;BMP280;9663;48.996;8.334;2023-08-31T01:10:51;99736.50;;;20.76
19061;BMP280;9663;48.996;8.334;2023-08-31T01:13:24;99739.00;;;20.77
19061;BMP280;9663;48.996;8.334;2023-08-31T01:16:00;99743.41;;;20.75
19061;BMP280;9663;48.996;8.334;2023-08-31T01:18:27;99736.66;;;20.73
19061;BMP280;9663;48.996;8.334;2023-08-31T01:21:25;99738.09;;;20.61
19061;BMP280;9663;48.996;8.334;2023-08-31T01:23:55;99730.91;;;20.68
19061;BMP280;9663;48.996;8.334;2023-08-31T01:26:23;99738.72;;;20.66
19061;BMP280;9663;48.996;8.334;2023-08-31T01:28:49;99739.69;;;20.64
19061;BMP280;9663;48.996;8.334;2023-08-31T01:31:16;99741.41;;;20.63
19061;BMP280;9663;48.996;8.334;2023-08-31T01:33:43;99744.06;;;20.62
19061;BMP280;9663;48.996;8.334;2023-08-31T01:39:08;99746.91;;;20.57
19061;BMP280;9663;48.996;8.334;2023-08-31T01:41:37;99755.44;;;20.58
19061;BMP280;9663;48.996;8.334;2023-08-31T01:44:05;99749.41;;;20.59
19061;BMP280;9663;48.996;8.334;2023-08-31T01:46:32;99749.41;;;20.59
19061;BMP280;9663;48.996;8.334;2023-08-31T01:48:58;99759.72;;;20.59
19061;BMP280;9663;48.996;8.334;2023-08-31T01:51:24;99762.03;;;20.63
19061;BMP280;9663;48.996;8.334;2023-08-31T01:53:50;99758.50;;;20.66
19061;BMP280;9663;48.996;8.334;2023-08-31T01:56:17;99763.50;;;20.69
19061;BMP280;9663;48.996;8.334;2023-08-31T01:58:42;99755.69;;;20.70
19061;BMP280;9663;48.996;8.334;2023-08-31T02:01:08;99756.50;;;20.71
19061;BMP280;9663;48.996;8.334;2023-08-31T02:03:33;99762.41;;;20.73
19061;BMP280;9663;48.996;8.334;2023-08-31T02:05:59;99757.94;;;20.76
19061;BMP280;9663;48.996;8.334;2023-08-31T02:08:25;99766.47;;;20.77
19061;BMP280;9663;48.996;8.334;2023-08-31T02:10:50;99763.09;;;20.76
19061;BMP280;9663;48.996;8.334;2023-08-31T02:13:16;99764.75;;;20.77
19061;BMP280;9663;48.996;8.334;2023-08-31T02:15:42;99768.16;;;20.78
19061;BMP280;9663;48.996;8.334;2023-08-31T02:18:08;99765.50;;;20.79
19061;BMP280;9663;48.996;8.334;2023-08-31T02:20:34;99767.19;;;20.80
19061;BMP280;9663;48.996;8.334;2023-08-31T02:23:00;99773.22;;;20.79
19061;BMP280;9663;48.996;8.334;2023-08-31T02:25:26;99772.41;;;20.79
19061;BMP280;9663;48.996;8.334;2023-08-31T02:27:54;99765.56;;;20.78
19061;BMP280;9663;48.996;8.334;2023-08-31T02:30:21;99769.75;;;20.80
19061;BMP280;9663;48.996;8.334;2023-08-31T02:32:47;99767.09;;;20.82
19061;BMP280;9663;48.996;8.334;2023-08-31T02:35:13;99771.25;;;20.84
19061;BMP280;9663;48.996;8.334;2023-08-31T02:37:38;99772.72;;;20.88
19061;BMP280;9663;48.996;8.334;2023-08-31T02:40:05;99776.09;;;20.90
19061;BMP280;9663;48.996;8.334;2023-08-31T02:42:31;99779.50;;;20.91
19061;BMP280;9663;48.996;8.334;2023-08-31T02:44:57;99781.31;;;20.89
19061;BMP280;9663;48.996;8.334;2023-08-31T02:47:23;99781.31;;;20.89
19061;BMP280;9663;48.996;8.334;2023-08-31T02:49:48;99777.06;;;20.88
19061;BMP280;9663;48.996;8.334;2023-08-31T02:52:14;99772.84;;;20.87
19061;BMP280;9663;48.996;8.334;2023-08-31T02:54:40;99774.50;;;20.88
19061;BMP280;9663;48.996;8.334;2023-08-31T02:57:05;99772.72;;;20.88
19061;BMP280;9663;48.996;8.334;2023-08-31T02:59:32;99769.34;;;20.88
19061;BMP280;9663;48.996;8.334;2023-08-31T03:02:04;99772.06;;;20.85
19061;BMP280;9663;48.996;8.334;2023-08-31T03:04:30;99771.31;;;20.83
19061;BMP280;9663;48.996;8.334;2023-08-31T03:06:56;99777.41;;;20.82
19061;BMP280;9663;48.996;8.334;2023-08-31T03:09:22;99780.88;;;20.81
19061;BMP280;9663;48.996;8.334;2023-08-31T03:11:47;99789.38;;;20.83
19061;BMP280;9663;48.996;8.334;2023-08-31T03:14:13;99789.38;;;20.83
19061;BMP280;9663;48.996;8.334;2023-08-31T03:16:39;99784.22;;;20.83
19061;BMP280;9663;48.996;8.334;2023-08-31T03:19:05;99795.34;;;20.83
19061;BMP280;9663;48.996;8.334;2023-08-31T03:21:31;99792.03;;;20.81
19061;BMP280;9663;48.996;8.334;2023-08-31T03:23:56;99797.25;;;20.80
19061;BMP280;9663;48.996;8.334;2023-08-31T03:26:22;99799.00;;;20.79
19061;BMP280;9663;48.996;8.334;2023-08-31T03:28:48;99811.88;;;20.79
19061;BMP280;9663;48.996;8.334;2023-08-31T03:31:13;99808.50;;;20.79
19061;BMP280;9663;48.996;8.334;2023-08-31T03:33:39;99810.13;;;20.80
19061;BMP280;9663;48.996;8.334;2023-08-31T03:36:05;99805.06;;;20.78
19061;BMP280;9663;48.996;8.334;2023-08-31T03:38:34;99808.56;;;20.77
19061;BMP280;9663;48.996;8.334;2023-08-31T03:41:03;99815.44;;;20.77
19061;BMP280;9663;48.996;8.334;2023-08-31T03:43:29;99818.94;;;20.76
19061;BMP280;9663;48.996;8.334;2023-08-31T03:45:56;99816.28;;;20.77
19061;BMP280;9663;48.996;8.334;2023-08-31T03:48:23;99818.13;;;20.75
19061;BMP280;9663;48.996;8.334;2023-08-31T03:50:53;99813.81;;;20.76
19061;BMP280;9663;48.996;8.334;2023-08-31T03:53:19;99813.13;;;20.72
19061;BMP280;9663;48.996;8.334;2023-08-31T03:55:45;99822.69;;;20.70
19061;BMP280;9663;48.996;8.334;2023-08-31T03:58:11;99830.50;;;20.69
19061;BMP280;9663;48.996;8.334;2023-08-31T04:00:37;99822.75;;;20.69
19061;BMP280;9663;48.996;8.334;2023-08-31T04:03:04;99823.75;;;20.66
19061;BMP280;9663;48.996;8.334;2023-08-31T04:05:34;99825.50;;;20.66
19061;BMP280;9663;48.996;8.334;2023-08-31T04:08:00;99830.75;;;20.63
19061;BMP280;9663;48.996;8.334;2023-08-31T04:10:26;99826.63;;;20.60
19061;BMP280;9663;48.996;8.334;2023-08-31T04:12:52;99824.94;;;20.59
19061;BMP280;9663;48.996;8.334;2023-08-31T04:15:18;99840.31;;;20.61
19061;BMP280;9663;48.996;8.334;2023-08-31T04:17:44;99838.50;;;20.63
19061;BMP280;9663;48.996;8.334;2023-08-31T04:20:11;99840.16;;;20.64
19061;BMP280;9663;48.996;8.334;2023-08-31T04:22:36;99836.81;;;20.62
19061;BMP280;9663;48.996;8.334;2023-08-31T04:25:03;99844.47;;;20.63
19061;BMP280;9663;48.996;8.334;2023-08-31T04:27:29;99841.97;;;20.62
19061;BMP280;9663;48.996;8.334;2023-08-31T04:30:02;99847.84;;;20.65
19061;BMP280;9663;48.996;8.334;2023-08-31T04:32:28;99847.84;;;20.65
19061;BMP280;9663;48.996;8.334;2023-08-31T04:34:54;99840.94;;;20.66
19061;BMP280;9663;48.996;8.334;2023-08-31T04:37:21;99842.59;;;20.67
19061;BMP280;9663;48.996;8.334;2023-08-31T04:39:48;99845.19;;;20.67
19061;BMP280;9663;48.996;8.334;2023-08-31T04:42:13;99846.84;;;20.68
19061;BMP280;9663;48.996;8.334;2023-08-31T04:44:39;99850.19;;;20.70
19061;BMP280;9663;48.996;8.334;2023-08-31T04:47:04;99856.19;;;20.70
19061;BMP280;9663;48.996;8.334;2023-08-31T04:49:30;99857.09;;;20.69
19061;BMP280;9663;48.996;8.334;2023-08-31T04:51:56;99852.69;;;20.71
19061;BMP280;9663;48.996;8.334;2023-08-31T04:54:22;99849.94;;;20.74
19061;BMP280;9663;48.996;8.334;2023-08-31T04:56:47;99860.19;;;20.76
19061;BMP280;9663;48.996;8.334;2023-08-31T04:59:14;99859.03;;;20.81
19061;BMP280;9663;48.996;8.334;2023-08-31T05:01:40;99861.53;;;20.83
19061;BMP280;9663;48.996;8.334;2023-08-31T05:04:06;99863.94;;;20.86
19061;BMP280;9663;48.996;8.334;2023-08-31T05:06:32;99870.78;;;20.87
19061;BMP280;9663;48.996;8.334;2023-08-31T05:08:58;99873.38;;;20.87
19061;BMP280;9663;48.996;8.334;2023-08-31T05:11:23;99880.16;;;20.88
19061;BMP280;9663;48.996;8.334;2023-08-31T05:13:49;99884.44;;;20.89
19061;BMP280;9663;48.996;8.334;2023-08-31T05:16:15;99887.81;;;20.89
19061;BMP280;9663;48.996;8.334;2023-08-31T05:18:40;99893.72;;;20.91
19061;BMP280;9663;48.996;8.334;2023-08-31T05:21:06;99889.31;;;20.93
19061;BMP280;9663;48.996;8.334;2023-08-31T05:23:32;99908.88;;;20.97
19061;BMP280;9663;48.996;8.334;2023-08-31T05:25:58;99897.75;;;20.97
19061;BMP280;9663;48.996;8.334;2023-08-31T05:28:24;99909.63;;;20.99
19061;BMP280;9663;48.996;8.334;2023-08-31T05:30:52;99914.72;;;21.00
19061;BMP280;9663;48.996;8.334;2023-08-31T05:33:18;99915.47;;;21.02
19061;BMP280;9663;48.996;8.334;2023-08-31T05:35:47;99913.81;;;21.01
19061;BMP280;9663;48.996;8.334;2023-08-31T05:38:13;99918.03;;;21.02
19061;BMP280;9663;48.996;8.334;2023-08-31T05:40:39;99917.16;;;21.03
19061;BMP280;9663;48.996;8.334;2023-08-31T05:43:07;99917.97;;;21.04
19061;BMP280;9663;48.996;8.334;2023-08-31T05:45:34;99920.41;;;21.07
19061;BMP280;9663;48.996;8.334;2023-08-31T05:48:00;99925.31;;;21.11
19061;BMP280;9663;48.996;8.334;2023-08-31T05:50:27;99920.84;;;21.15
19061;BMP280;9663;48.996;8.334;2023-08-31T05:52:53;99920.44;;;21.22
19061;BMP280;9663;48.996;8.334;2023-08-31T05:55:20;99912.53;;;21.25
19061;BMP280;9663;48.996;8.334;2023-08-31T05:57:45;99919.19;;;21.29
19061;BMP280;9663;48.996;8.334;2023-08-31T06:00:11;99928.44;;;21.33
19061;BMP280;9663;48.996;8.334;2023-08-31T06:02:37;99930.88;;;21.36
19061;BMP280;9663;48.996;8.334;2023-08-31T06:05:03;99923.72;;;21.41
19061;BMP280;9663;48.996;8.334;2023-08-31T06:07:30;99934.59;;;21.47
19061;BMP280;9663;48.996;8.334;2023-08-31T06:09:56;99930.59;;;21.57
19061;BMP280;9663;48.996;8.334;2023-08-31T06:12:22;99937.09;;;21.64
19061;BMP280;9663;48.996;8.334;2023-08-31T06:14:48;99934.94;;;21.72
19061;BMP280;9663;48.996;8.334;2023-08-31T06:17:14;99943.00;;;21.82
19061;BMP280;9663;48.996;8.334;2023-08-31T06:19:43;99939.84;;;21.92
19061;BMP280;9663;48.996;8.334;2023-08-31T06:22:09;99945.59;;;21.97
19061;BMP280;9663;48.996;8.334;2023-08-31T06:24:35;99947.06;;;22.01
19061;BMP280;9663;48.996;8.334;2023-08-31T06:27:02;99947.00;;;22.02
19061;BMP280;9663;48.996;8.334;2023-08-31T06:29:28;99946.09;;;22.03
19061;BMP280;9663;48.996;8.334;2023-08-31T06:31:53;99949.56;;;22.02
19061;BMP280;9663;48.996;8.334;2023-08-31T06:34:19;99944.56;;;21.99
19061;BMP280;9663;48.996;8.334;2023-08-31T06:36:45;99948.19;;;21.97
19061;BMP280;9663;48.996;8.334;2023-08-31T06:39:10;99950.09;;;21.93
19061;BMP280;9663;48.996;8.334;2023-08-31T06:41:36;99951.00;;;21.92
19061;BMP280;9663;48.996;8.334;2023-08-31T06:44:02;99954.41;;;21.93
19061;BMP280;9663;48.996;8.334;2023-08-31T06:46:29;99957.75;;;21.95
19061;BMP280;9663;48.996;8.334;2023-08-31T06:48:59;99956.09;;;21.94
19061;BMP280;9663;48.996;8.334;2023-08-31T06:51:25;99968.91;;;21.95
19061;BMP280;9663;48.996;8.334;2023-08-31T06:53:51;99963.59;;;21.98
19061;BMP280;9663;48.996;8.334;2023-08-31T06:56:16;99970.16;;;22.04
19061;BMP280;9663;48.996;8.334;2023-08-31T06:58:42;99966.41;;;22.09
19061;BMP280;9663;48.996;8.334;2023-08-31T07:01:08;99963.50;;;22.15
19061;BMP280;9663;48.996;8.334;2023-08-31T07:03:34;99971.84;;;22.20
19061;BMP280;9663;48.996;8.334;2023-08-31T07:06:00;99981.00;;;22.26
19061;BMP280;9663;48.996;8.334;2023-08-31T07:08:26;99974.59;;;22.32
19061;BMP280;9663;48.996;8.334;2023-08-31T07:10:51;99978.50;;;22.39
19061;BMP280;9663;48.996;8.334;2023-08-31T07:13:17;99982.47;;;22.45
19061;BMP280;9663;48.996;8.334;2023-08-31T07:15:43;99979.56;;;22.51
19061;BMP280;9663;48.996;8.334;2023-08-31T07:18:09;99985.22;;;22.57
19061;BMP280;9663;48.996;8.334;2023-08-31T07:20:34;99979.59;;;22.65
19061;BMP280;9663;48.996;8.334;2023-08-31T07:23:00;99977.66;;;22.68
19061;BMP280;9663;48.996;8.334;2023-08-31T07:25:26;99978.31;;;22.72
19061;BMP280;9663;48.996;8.334;2023-08-31T07:27:52;99984.81;;;22.78
19061;BMP280;9663;48.996;8.334;2023-08-31T07:30:18;99985.31;;;22.85
19061;BMP280;9663;48.996;8.334;2023-08-31T07:32:44;99986.47;;;22.95
19061;BMP280;9663;48.996;8.334;2023-08-31T07:35:10;99972.91;;;23.05
19061;BMP280;9663;48.996;8.334;2023-08-31T07:37:35;99968.66;;;23.18
19061;BMP280;9663;48.996;8.334;2023-08-31T07:40:03;99982.00;;;23.26
19061;BMP280;9663;48.996;8.334;2023-08-31T07:42:34;99973.09;;;23.30
19061;BMP280;9663;48.996;8.334;2023-08-31T07:45:00;99994.34;;;23.35
19061;BMP280;9663;48.996;8.334;2023-08-31T07:47:26;100008.59;;;23.42
19061;BMP280;9663;48.996;8.334;2023-08-31T07:49:51;100001.38;;;23.47
19061;BMP280;9663;48.996;8.334;2023-08-31T07:52:17;100001.03;;;23.53
19061;BMP280;9663;48.996;8.334;2023-08-31T07:54:43;99999.81;;;23.58
19061;BMP280;9663;48.996;8.334;2023-08-31T07:57:08;100002.25;;;23.61
19061;BMP280;9663;48.996;8.334;2023-08-31T07:59:34;100007.34;;;23.62
19061;BMP280;9663;48.996;8.334;2023-08-31T08:02:00;100011.41;;;23.66
19061;BMP280;9663;48.996;8.334;2023-08-31T08:04:25;99999.94;;;23.70
19061;BMP280;9663;48.996;8.334;2023-08-31T08:06:52;100013.44;;;23.75
19061;BMP280;9663;48.996;8.334;2023-08-31T08:09:18;100009.72;;;23.79
19061;BMP280;9663;48.996;8.334;2023-08-31T08:11:43;100015.19;;;23.89
19061;BMP280;9663;48.996;8.334;2023-08-31T08:14:09;100017.41;;;23.95
19061;BMP280;9663;48.996;8.334;2023-08-31T08:16:35;100019.50;;;24.02
19061;BMP280;9663;48.996;8.334;2023-08-31T08:19:01;100017.19;;;24.11
19061;BMP280;9663;48.996;8.334;2023-08-31T08:21:27;100018.38;;;24.20
19061;BMP280;9663;48.996;8.334;2023-08-31T08:23:52;100013.53;;;24.28
19061;BMP280;9663;48.996;8.334;2023-08-31T08:26:18;100019.19;;;24.34
19061;BMP280;9663;48.996;8.334;2023-08-31T08:28:44;100017.13;;;24.39
19061;BMP280;9663;48.996;8.334;2023-08-31T08:31:10;100023.59;;;24.46
19061;BMP280;9663;48.996;8.334;2023-08-31T08:33:35;100034.22;;;24.55
19061;BMP280;9663;48.996;8.334;2023-08-31T08:36:01;100028.31;;;24.66
19061;BMP280;9663;48.996;8.334;2023-08-31T08:38:27;100033.22;;;24.70
19061;BMP280;9663;48.996;8.334;2023-08-31T08:40:53;100025.22;;;24.73
19061;BMP280;9663;48.996;8.334;2023-08-31T08:43:25;100016.63;;;24.73
19061;BMP280;9663;48.996;8.334;2023-08-31T08:45:53;100025.88;;;24.77
19061;BMP280;9663;48.996;8.334;2023-08-31T08:48:20;100022.47;;;24.89
19061;BMP280;9663;48.996;8.334;2023-08-31T08:50:47;100021.31;;;25.06
19061;BMP280;9663;48.996;8.334;2023-08-31T08:53:14;100031.69;;;25.19
19061;BMP280;9663;48.996;8.334;2023-08-31T08:55:41;100027.72;;;25.26
19061;BMP280;9663;48.996;8.334;2023-08-31T08:58:07;100023.41;;;25.26
19061;BMP280;9663;48.996;8.334;2023-08-31T09:00:33;100028.78;;;25.23
19061;BMP280;9663;48.996;8.334;2023-08-31T09:03:03;100030.03;;;25.18
19061;BMP280;9663;48.996;8.334;2023-08-31T09:05:32;100041.63;;;25.12
19061;BMP280;9663;48.996;8.334;2023-08-31T09:08:07;100035.72;;;25.10
19061;BMP280;9663;48.996;8.334;2023-08-31T09:10:42;100035.94;;;25.20
19061;BMP280;9663;48.996;8.334;2023-08-31T09:13:15;100031.19;;;25.26
19061;BMP280;9663;48.996;8.334;2023-08-31T09:15:47;100039.78;;;25.27
19061;BMP280;9663;48.996;8.334;2023-08-31T09:18:31;100031.28;;;25.25
19061;BMP280;9663;48.996;8.334;2023-08-31T09:21:00;100043.31;;;25.26
19061;BMP280;9663;48.996;8.334;2023-08-31T09:23:26;100038.25;;;25.24
19061;BMP280;9663;48.996;8.334;2023-08-31T09:25:54;100037.81;;;25.30
19061;BMP280;9663;48.996;8.334;2023-08-31T09:28:27;100032.94;;;25.38
19061;BMP280;9663;48.996;8.334;2023-08-31T09:31:06;100033.97;;;25.48
19061;BMP280;9663;48.996;8.334;2023-08-31T09:33:34;100028.72;;;25.62
19061;BMP280;9663;48.996;8.334;2023-08-31T09:36:00;100028.09;;;25.71
19061;BMP280;9663;48.996;8.334;2023-08-31T09:38:27;100030.03;;;25.79
19061;BMP280;9663;48.996;8.334;2023-08-31T09:41:04;100035.63;;;25.86
19061;BMP280;9663;48.996;8.334;2023-08-31T09:43:32;100024.63;;;25.95
19061;BMP280;9663;48.996;8.334;2023-08-31T09:45:59;100036.84;;;26.05
19061;BMP280;9663;48.996;8.334;2023-08-31T09:48:26;100032.78;;;26.14
19061;BMP280;9663;48.996;8.334;2023-08-31T09:50:54;100018.28;;;26.22
19061;BMP280;9663;48.996;8.334;2023-08-31T09:53:21;100031.41;;;26.33
19061;BMP280;9663;48.996;8.334;2023-08-31T09:55:51;100031.78;;;26.39
19061;BMP280;9663;48.996;8.334;2023-08-31T09:58:21;100033.81;;;26.47
19061;BMP280;9663;48.996;8.334;2023-08-31T10:00:50;100024.75;;;26.52
19061;BMP280;9663;48.996;8.334;2023-08-31T10:03:17;100031.88;;;26.61
19061;BMP280;9663;48.996;8.334;2023-08-31T10:05:48;100041.28;;;26.74
19061;BMP280;9663;48.996;8.334;2023-08-31T10:08:15;100022.31;;;26.85
19061;BMP280;9663;48.996;8.334;2023-08-31T10:10:42;100030.94;;;26.85
19061;BMP280;9663;48.996;8.334;2023-08-31T10:13:08;100032.44;;;26.77
19061;BMP280;9663;48.996;8.334;2023-08-31T10:15:35;100034.38;;;26.63
19061;BMP280;9663;48.996;8.334;2023-08-31T10:18:03;100044.38;;;26.45
19061;BMP280;9663;48.996;8.334;2023-08-31T10:20:31;100037.31;;;26.35
19061;BMP280;9663;48.996;8.334;2023-08-31T10:22:58;100015.06;;;26.31
19061;BMP280;9663;48.996;8.334;2023-08-31T10:25:24;100034.81;;;26.33
19061;BMP280;9663;48.996;8.334;2023-08-31T10:27:52;100035.22;;;26.40
19061;BMP280;9663;48.996;8.334;2023-08-31T10:38:37;100044.38;;;25.85
19061;BMP280;9663;48.996;8.334;2023-08-31T10:43:55;100048.84;;;25.83
19061;BMP280;9663;48.996;8.334;2023-08-31T10:49:22;100044.66;;;26.05
19061;BMP280;9663;48.996;8.334;2023-08-31T10:51:57;100039.63;;;26.27
19061;BMP280;9663;48.996;8.334;2023-08-31T10:54:32;100040.91;;;26.45
19061;BMP280;9663;48.996;8.334;2023-08-31T10:57:02;100038.94;;;26.71
19061;BMP280;9663;48.996;8.334;2023-08-31T11:00:02;100014.06;;;26.91
19061;BMP280;9663;48.996;8.334;2023-08-31T11:02:32;100025.59;;;27.10
19061;BMP280;9663;48.996;8.334;2023-08-31T11:05:12;100018.50;;;27.12
19061;BMP280;9663;48.996;8.334;2023-08-31T11:07:42;100022.28;;;27.08
19061;BMP280;9663;48.996;8.334;2023-08-31T11:12:48;100032.16;;;26.92
19061;BMP280;9663;48.996;8.334;2023-08-31T11:15:19;100035.09;;;26.88
19061;BMP280;9663;48.996;8.334;2023-08-31T11:17:46;100039.47;;;26.87
19061;BMP280;9663;48.996;8.334;2023-08-31T11:20:22;100027.94;;;26.91
19061;BMP280;9663;48.996;8.334;2023-08-31T11:22:50;100027.72;;;27.05
19061;BMP280;9663;48.996;8.334;2023-08-31T11:25:18;100022.91;;;27.22
19061;BMP280;9663;48.996;8.334;2023-08-31T11:27:59;100008.41;;;27.74
19061;BMP280;9663;48.996;8.334;2023-08-31T11:30:28;99994.06;;;28.65
19061;BMP280;9663;48.996;8.334;2023-08-31T11:32:54;99994.19;;;29.45
19061;BMP280;9663;48.996;8.334;2023-08-31T11:35:22;99991.50;;;30.34
19061;BMP280;9663;48.996;8.334;2023-08-31T11:37:56;99985.56;;;31.16
19061;BMP280;9663;48.996;8.334;2023-08-31T11:40:22;99984.81;;;31.43
19061;BMP280;9663;48.996;8.334;2023-08-31T11:42:48;99984.66;;;31.90
19061;BMP280;9663;48.996;8.334;2023-08-31T11:45:18;99993.00;;;32.20
19061;BMP280;9663;48.996;8.334;2023-08-31T11:47:44;99989.38;;;32.82
19061;BMP280;9663;48.996;8.334;2023-08-31T11:50:11;99975.16;;;33.60
19061;BMP280;9663;48.996;8.334;2023-08-31T11:52:39;99964.53;;;34.10
19061;BMP280;9663;48.996;8.334;2023-08-31T11:55:15;99960.97;;;34.51
19061;BMP280;9663;48.996;8.334;2023-08-31T11:57:51;99967.75;;;34.85
19061;BMP280;9663;48.996;8.334;2023-08-31T12:00:19;99968.56;;;35.09
19061;BMP280;9663;48.996;8.334;2023-08-31T12:03:02;99966.88;;;35.40
19061;BMP280;9663;48.996;8.334;2023-08-31T12:05:48;99962.50;;;34.85
19061;BMP280;9663;48.996;8.334;2023-08-31T12:08:15;99972.88;;;34.06
19061;BMP280;9663;48.996;8.334;2023-08-31T12:10:45;99968.44;;;33.15
19061;BMP280;9663;48.996;8.334;2023-08-31T12:13:13;99968.97;;;32.41
19061;BMP280;9663;48.996;8.334;2023-08-31T12:15:38;99973.06;;;31.83
19061;BMP280;9663;48.996;8.334;2023-08-31T12:18:10;99980.44;;;31.24
19061;BMP280;9663;48.996;8.334;2023-08-31T12:20:47;99968.50;;;30.75
19061;BMP280;9663;48.996;8.334;2023-08-31T12:23:13;99975.09;;;30.69
19061;BMP280;9663;48.996;8.334;2023-08-31T12:25:53;99981.44;;;31.14
19061;BMP280;9663;48.996;8.334;2023-08-31T12:28:22;99957.84;;;31.59
19061;BMP280;9663;48.996;8.334;2023-08-31T12:30:53;99960.00;;;31.73
19061;BMP280;9663;48.996;8.334;2023-08-31T12:33:20;99966.59;;;31.50
19061;BMP280;9663;48.996;8.334;2023-08-31T12:35:47;99966.53;;;31.14
19061;BMP280;9663;48.996;8.334;2023-08-31T12:38:13;99982.53;;;30.64
19061;BMP280;9663;48.996;8.334;2023-08-31T12:40:39;99981.94;;;30.14
19061;BMP280;9663;48.996;8.334;2023-08-31T12:43:06;99975.28;;;29.62
19061;BMP280;9663;48.996;8.334;2023-08-31T12:45:32;99982.97;;;29.24
19061;BMP280;9663;48.996;8.334;2023-08-31T12:47:59;99983.69;;;28.95
19061;BMP280;9663;48.996;8.334;2023-08-31T12:50:25;99987.75;;;28.68
19061;BMP280;9663;48.996;8.334;2023-08-31T12:52:51;100002.06;;;28.42
19061;BMP280;9663;48.996;8.334;2023-08-31T12:55:16;99998.78;;;28.18
19061;BMP280;9663;48.996;8.334;2023-08-31T12:57:43;99997.84;;;27.97
19061;BMP280;9663;48.996;8.334;2023-08-31T13:00:10;99987.91;;;27.81
19061;BMP280;9663;48.996;8.334;2023-08-31T13:02:43;99991.13;;;27.73
19061;BMP280;9663;48.996;8.334;2023-08-31T13:05:11;99997.88;;;27.76
19061;BMP280;9663;48.996;8.334;2023-08-31T13:07:37;99996.72;;;27.80
19061;BMP280;9663;48.996;8.334;2023-08-31T13:10:04;99991.50;;;27.80
19061;BMP280;9663;48.996;8.334;2023-08-31T13:12:31;99991.63;;;27.78
19061;BMP280;9663;48.996;8.334;2023-08-31T13:14:58;99985.44;;;27.79
19061;BMP280;9663;48.996;8.334;2023-08-31T13:17:25;99996.94;;;27.77
19061;BMP280;9663;48.996;8.334;2023-08-31T13:19:58;99994.09;;;27.69
19061;BMP280;9663;48.996;8.334;2023-08-31T13:22:24;99996.91;;;27.55
19061;BMP280;9663;48.996;8.334;2023-08-31T13:24:51;99993.59;;;27.42
19061;BMP280;9663;48.996;8.334;2023-08-31T13:27:17;99994.66;;;27.29
19061;BMP280;9663;48.996;8.334;2023-08-31T13:29:43;99990.47;;;27.15
19061;BMP280;9663;48.996;8.334;2023-08-31T13:32:09;99998.38;;;27.03
19061;BMP280;9663;48.996;8.334;2023-08-31T13:34:36;99984.41;;;26.93
19061;BMP280;9663;48.996;8.334;2023-08-31T13:37:05;99985.03;;;26.84
19061;BMP280;9663;48.996;8.334;2023-08-31T13:39:33;99992.59;;;26.76
19061;BMP280;9663;48.996;8.334;2023-08-31T13:41:59;99992.22;;;26.70
19061;BMP280;9663;48.996;8.334;2023-08-31T13:44:27;99991.59;;;26.66
19061;BMP280;9663;48.996;8.334;2023-08-31T13:46:54;99990.66;;;26.67
19061;BMP280;9663;48.996;8.334;2023-08-31T13:49:20;99987.25;;;26.67
19061;BMP280;9663;48.996;8.334;2023-08-31T13:51:45;99992.22;;;26.70
19061;BMP280;9663;48.996;8.334;2023-08-31T13:54:11;99990.00;;;26.76
19061;BMP280;9663;48.996;8.334;2023-08-31T13:56:37;99986.94;;;26.82
19061;BMP280;9663;48.996;8.334;2023-08-31T13:59:03;99987.56;;;26.86
19061;BMP280;9663;48.996;8.334;2023-08-31T14:01:29;99986.69;;;26.85
19061;BMP280;9663;48.996;8.334;2023-08-31T14:03:55;99988.59;;;26.83
19061;BMP280;9663;48.996;8.334;2023-08-31T14:06:21;99988.72;;;26.82
19061;BMP280;9663;48.996;8.334;2023-08-31T14:08:46;99986.22;;;26.80
19061;BMP280;9663;48.996;8.334;2023-08-31T14:11:14;99985.16;;;26.83
19061;BMP280;9663;48.996;8.334;2023-08-31T14:13:39;99984.84;;;26.87
19061;BMP280;9663;48.996;8.334;2023-08-31T14:16:06;99987.81;;;26.94
19061;BMP280;9663;48.996;8.334;2023-08-31T14:18:32;99984.06;;;27.08
19061;BMP280;9663;48.996;8.334;2023-08-31T14:20:58;99977.94;;;27.31
19061;BMP280;9663;48.996;8.334;2023-08-31T14:23:25;99981.66;;;27.61
19061;BMP280;9663;48.996;8.334;2023-08-31T14:25:51;99978.09;;;28.06
19061;BMP280;9663;48.996;8.334;2023-08-31T14:28:16;99967.03;;;28.86
19061;BMP280;9663;48.996;8.334;2023-08-31T14:30:43;99969.09;;;29.53
19061;BMP280;9663;48.996;8.334;2023-08-31T14:33:09;99973.06;;;29.87
19061;BMP280;9663;48.996;8.334;2023-08-31T14:35:38;99975.44;;;30.09
19061;BMP280;9663;48.996;8.334;2023-08-31T14:38:05;99966.97;;;30.25
19061;BMP280;9663;48.996;8.334;2023-08-31T14:40:31;99973.31;;;30.32